x

Corpus Christi, Tx - 60nm Sse Of Corpus Christi, Tx (42020) Wave Buoy

8:50pm - Tue 21st Feb 2017 All times are CST. -6 hours from GMT.

  • Sig Wave height 1.6ft
  • Swell Direction
  • Peak Period 8s
  • Average Period 4s
  • Wind
    7mph, 9mph gusts
  • Air Temp 74°f
  • Sea Pressure 1013.8mb
  • Corpus Christi, Tx - 60nm Sse Of Corpus Christi, Tx
  • Corpus Christi, Tx - 60nm Sse Of Corpus Christi, Tx

More Historic Weather Station data

Upgrade to MSW Pro to gain access to the past 30 days of data for over 8000 Wavebouys and Weather Stations around the globe.

Join Pro

Comparision Forecast

View Surf forecast
   
Tue 02/21 8:50pm 1.6ft 8s 4s 7 9 mph 1013.8mb 74f
7:50pm 1.6ft 8s 4s 4 7 mph 1013.4mb 73f
6:50pm 1.6ft 8s 4s 2 4 mph 1013mb 73f
5:50pm 2ft 8s 4s 4
mph
1012.8mb 74f
4:50pm 2ft 8s 4s 9
mph
1012.5mb 74f
3:50pm 2ft 7s 4s 11 13 mph 1012.6mb 73f
2:50pm 2.5ft 8s 4s 13 16 mph 1013mb 73f
1:50pm 3ft 5s 4s 11 13 mph 1014mb 71f
12:50pm 3.5ft 5s 4s 16 18 mph 1015.5mb 71f
11:50am 4ft 5s 4s 20 25 mph 1016.5mb 71f
10:50am 4ft 4s 4s 22 27 mph 1016.9mb 70f
9:50am 4.5ft 4s 4s 22 27 mph 1016.8mb 67f
8:50am 4ft 5s 4s 20 25 mph 1016mb 69f
7:50am 4.5ft 5s 4s 22 27 mph 1015.7mb 69f
6:50am 4.5ft 5s 4s 22 27 mph 1015.3mb 68f
5:50am 4.5ft 7s 4s 25 29 mph 1015.4mb 67f
4:50am 4.5ft 8s 5s 25 29 mph 1015.2mb 68f
3:50am 3.5ft 8s 5s 22 25 mph 1015.1mb 68f
2:50am 4ft 8s 6s 18 20 mph 1015.3mb 69f
1:50am 3.5ft 8s 6s 16 18 mph 1015.7mb 69f
12:50am 3.5ft 8s 6s 9 11 mph 1015.7mb 70f
Mon 02/20 11:50pm 3.5ft 8s 6s 9 11 mph 1016mb 70f
10:50pm 4.5ft 8s 6s 7 9 mph 1016mb 69f
9:50pm 4.5ft 8s 6s 4 7 mph 1016.2mb 69f
8:50pm 4.5ft 8s 6s 4
mph
1016mb 68f
7:50pm 4.5ft 8s 6s 2 4 mph 1015.7mb 68f
6:50pm 4.5ft 8s 6s 4 7 mph 1015.2mb 68f
5:50pm 5ft 8s 6s 7 9 mph 1014.3mb 68f
4:50pm 5.5ft 8s 6s 2 4 mph 1013.7mb 69f
3:50pm 5ft 8s 6s 2
mph
1013.3mb 68f
2:50pm 5ft 8s 6s 11 13 mph 1013.2mb 68f
1:50pm 5ft 7s 6s 7 9 mph 1014.4mb 68f
12:50pm 5ft 7s 6s 11 13 mph 1014.1mb 68f
11:50am 5.5ft 8s 6s 13 16 mph 1015mb 68f
10:50am 5ft 7s 6s 13 18 mph 1015.2mb 68f
9:50am 5.5ft 7s 6s 16 18 mph 1014.2mb 67f
8:50am 5ft 7s 6s 13 16 mph 1014.4mb 67f
7:50am 5.5ft 8s 6s 11 16 mph 1012.2mb 67f
6:50am 6.5ft 7s 6s 20 25 mph 1012.6mb 67f
5:50am 7ft 8s 6s 7 9 mph 1010.9mb 72f
4:50am 7ft 7s 6s 9 11 mph 1009.8mb 73f
3:50am 7.5ft 7s 6s 9 11 mph 1008.9mb 74f
2:50am 8ft 7s 6s 16 20 mph 1009mb 74f
1:50am 8ft 8s 6s 16 20 mph 1009.4mb 75f
12:50am 9ft 7s 6s 29 36 mph 1007.6mb 75f
Sun 02/19 11:50pm 8ft 7s 5s 29 36 mph 1007.6mb 75f
10:50pm 7.5ft 6s 5s 29 36 mph 1007.6mb 75f
9:50pm 6ft 7s 5s 29 36 mph 1007mb 75f
8:50pm 5.5ft 6s 5s 25 29 mph 1007.8mb 75f
7:50pm 5.5ft 6s 5s 22 27 mph 1007.4mb 75f
6:50pm 5.5ft 7s 5s 20 22 mph 1007.2mb 75f
5:50pm 5ft 7s 5s 22 29 mph 1006.4mb 75f
4:50pm 5.5ft 7s 5s 25 29 mph 1006.4mb 75f
3:50pm 5ft 6s 5s 25 29 mph 1006.2mb 75f
2:50pm 5ft 6s 5s 22 27 mph 1007.2mb 75f
1:50pm 5ft 7s 5s 20 22 mph 1008.3mb 74f
12:50pm 5ft 7s 5s 18 22 mph 1009.6mb 75f
11:50am 5ft 7s 5s 18 22 mph 1010.4mb 74f
10:50am 4.5ft 6s 5s 18 20 mph 1010.6mb 74f
9:50am 4.5ft 6s 5s 16 20 mph 1010.7mb 74f
8:50am 5ft 6s 5s 16 20 mph 1010.4mb 74f
7:50am 4.5ft 6s 5s 18 22 mph 1009mb 74f
6:50am 4.5ft 7s 5s 16 20 mph 1008.3mb 74f
5:50am 4.5ft 6s 5s 18 22 mph 1007.6mb 74f
4:50am 4.5ft 6s 5s 18 20 mph 1007.4mb 74f
3:50am 4.5ft 6s 5s 18 25 mph 1006.8mb 74f
2:50am 4ft 7s 5s 18 20 mph 1007.5mb 74f
1:50am 4.5ft 6s 5s 16 20 mph 1008.2mb 74f
12:50am 4ft 7s 5s 16 18 mph 1008.3mb 74f
Sat 02/18 11:50pm 3.5ft 5s 5s 16 18 mph 1008.9mb 74f
10:50pm 3.5ft 6s 4s 13 16 mph 1008.8mb 74f
9:50pm 3.5ft 6s 4s 16 18 mph 1008.2mb 74f
8:50pm 3.5ft 5s 4s 13 16 mph 1007.8mb 74f
7:50pm 3.5ft 6s 4s 16 18 mph 1007.4mb 73f
6:50pm 3.5ft 6s 4s 13 16 mph 1007.2mb 73f
5:50pm 3.5ft 6s 5s 13 16 mph 1007mb 74f
4:50pm 3ft 6s 5s 11 13 mph 1006.6mb 74f
3:50pm 3ft 6s 4s 13 16 mph 1006.7mb 74f
2:50pm 3ft 6s 5s 13 16 mph 1007mb 73f
1:50pm 2.5ft 6s 5s 11 13 mph 1007.5mb 73f
12:50pm 2.5ft 6s 5s 13
mph
1008.2mb 73f
11:50am 2.5ft 6s 5s 13 16 mph 1009.2mb 73f
10:50am 2.5ft 6s 5s 9 11 mph 1009.9mb 73f
9:50am 2.5ft 6s 5s 9 11 mph 1009.9mb 72f
8:50am 3ft 7s 5s 9 11 mph 1009.4mb 72f
7:50am 3ft 6s 5s 9
mph
1009.3mb 71f
6:50am 3ft 6s 4s 11 13 mph 1009.1mb 71f
5:50am 3ft 6s 4s 11 13 mph 1008.6mb 71f
4:50am 3.5ft 6s 4s 11 13 mph 1008.5mb 71f